OERK/RUH METAR and TAF weather

Enter ICAO airport designator
Station Type Date Time Source
OERK METAR 2019/04/20 18:00 UTC NOAA

OERK 201800Z 02014KT CAVOK 28/05 Q1012 NOSIG


Station Type Date Time Source
OERK Decoded METAR 2019/04/20 18:00 UTC NOAA

King Khaled International Airport, Saudi Arabia (OERK) 24-56N 046-43E 612M
Apr 20, 2019 - 02:00 PM EDT / 2019.04.20 1800 UTC
Wind: from the NNE (020 degrees) at 16 MPH (14 KT):0
Visibility: greater than 7 mile(s):0
Temperature: 82 F (28 C)
Dew Point: 41 F (5 C)
Relative Humidity: 23%
Pressure (altimeter): 29.88 in. Hg (1012 hPa)
ob: OERK 201800Z 02014KT CAVOK 28/05 Q1012 NOSIG
cycle: 18

Station Type Date Time Source
OERK TAF 2019/04/20 18:03 UTC NOAA

TAF OERK 201700Z 2018/2124 33008KT 7000 FEW040
TEMPO 2018/2024 4000 DU SCT040
BECMG 2106/2108 07012KT

Example: see airport list